createdAt,value
2023-01-19T00:00:15.492Z,78.76
2023-01-19T00:02:48.845Z,78.88
2023-01-19T00:05:20.069Z,79.25
2023-01-19T00:07:50.294Z,78.85
2023-01-19T00:10:20.697Z,78.76
2023-01-19T00:12:51.274Z,78.46
2023-01-19T00:15:21.671Z,78.41
2023-01-19T00:17:56.441Z,78.35
2023-01-19T00:20:27.014Z,78.69
2023-01-19T00:22:57.096Z,78.96
2023-01-19T00:25:27.415Z,78.82
2023-01-19T00:28:00.609Z,78.63
2023-01-19T00:30:32.026Z,78.71
2023-01-19T00:33:04.432Z,79.28
2023-01-19T00:35:34.525Z,79.42
2023-01-19T00:38:05.702Z,79.25
2023-01-19T00:40:35.618Z,79.42
2023-01-19T00:43:04.301Z,79.27
2023-01-19T00:45:36.072Z,79.22
2023-01-19T00:48:09.181Z,78.95
2023-01-19T00:50:39.046Z,79.11
2023-01-19T00:53:08.965Z,79.06
2023-01-19T00:55:38.816Z,79.33
2023-01-19T00:58:09.806Z,79.60
2023-01-19T01:00:39.742Z,79.79
2023-01-19T01:03:14.028Z,79.94
2023-01-19T01:05:46.342Z,80.06
2023-01-19T01:08:16.677Z,80.33
2023-01-19T01:10:46.994Z,80.30
2023-01-19T01:13:21.676Z,80.12
2023-01-19T01:15:56.278Z,79.65
2023-01-19T01:18:29.066Z,79.79
2023-01-19T01:21:04.201Z,79.76
2023-01-19T01:23:34.135Z,80.09
2023-01-19T01:26:04.396Z,79.55
2023-01-19T01:28:35.253Z,79.39
2023-01-19T01:31:05.099Z,79.74
2023-01-19T01:33:40.508Z,80.47
2023-01-19T01:36:13.097Z,80.44
2023-01-19T01:38:43.945Z,79.88
2023-01-19T01:41:13.893Z,80.11
2023-01-19T01:43:47.985Z,80.18
2023-01-19T01:46:20.302Z,79.69
2023-01-19T01:48:59.921Z,80.10
2023-01-19T01:51:37.454Z,79.79
2023-01-19T01:54:17.030Z,79.77
2023-01-19T01:56:51.565Z,79.91
2023-01-19T01:59:29.562Z,80.36
2023-01-19T02:02:17.139Z,80.05
2023-01-19T02:04:56.650Z,80.74
2023-01-19T02:07:49.189Z,80.67
2023-01-19T02:10:31.675Z,81.04
2023-01-19T02:13:14.732Z,81.06
2023-01-19T02:15:49.734Z,81.16
2023-01-19T02:18:21.419Z,80.70
2023-01-19T02:21:30.396Z,80.47
2023-01-19T02:24:04.260Z,80.57
2023-01-19T02:26:39.397Z,80.66
2023-01-19T02:29:12.455Z,80.78
2023-01-19T02:31:43.578Z,81.07
2023-01-19T02:34:17.193Z,80.84
2023-01-19T02:36:54.922Z,81.20
2023-01-19T02:39:33.748Z,82.01
2023-01-19T02:42:10.121Z,82.54
2023-01-19T02:44:44.203Z,82.83
2023-01-19T02:47:16.987Z,82.85
2023-01-19T02:49:49.247Z,82.85
2023-01-19T02:52:21.491Z,82.28
2023-01-19T02:55:07.486Z,82.18
2023-01-19T02:58:00.546Z,82.83
2023-01-19T03:00:46.607Z,82.79
2023-01-19T03:03:33.471Z,82.75
2023-01-19T03:06:16.575Z,82.74
2023-01-19T03:08:56.309Z,82.67
2023-01-19T03:11:40.128Z,82.52
2023-01-19T03:14:18.531Z,82.79
2023-01-19T03:16:55.233Z,83.08
2023-01-19T03:19:31.332Z,83.36
2023-01-19T03:22:05.911Z,83.15
2023-01-19T03:24:43.384Z,83.32
2023-01-19T03:27:22.149Z,83.28
2023-01-19T03:29:58.086Z,83.49
2023-01-19T03:32:35.781Z,83.42
2023-01-19T03:35:13.100Z,83.08
2023-01-19T03:37:48.355Z,83.04
2023-01-19T03:40:19.556Z,82.95
2023-01-19T03:42:53.294Z,83.40
2023-01-19T03:45:25.495Z,83.52
2023-01-19T03:47:57.218Z,83.28
2023-01-19T03:50:30.672Z,83.23
2023-01-19T03:53:05.225Z,83.66
2023-01-19T03:55:41.019Z,83.25
2023-01-19T03:58:14.388Z,82.95
2023-01-19T04:00:44.273Z,82.91
2023-01-19T04:03:19.091Z,83.08
2023-01-19T04:05:49.793Z,82.96
2023-01-19T04:08:19.676Z,83.09
2023-01-19T04:10:49.519Z,83.17
2023-01-19T04:13:22.663Z,82.90
2023-01-19T04:15:52.663Z,82.96
2023-01-19T04:18:22.912Z,82.94
2023-01-19T04:20:52.754Z,82.45
2023-01-19T04:23:25.508Z,82.47
2023-01-19T04:26:00.219Z,82.50
2023-01-19T04:28:33.547Z,82.65
2023-01-19T04:31:04.094Z,82.87
2023-01-19T04:33:34.426Z,83.00
2023-01-19T04:36:04.697Z,82.94
2023-01-19T04:38:34.575Z,82.99
2023-01-19T04:41:04.469Z,82.71
2023-01-19T04:43:37.164Z,83.04
2023-01-19T04:46:08.158Z,82.85
2023-01-19T04:48:38.165Z,82.85
2023-01-19T04:51:08.956Z,82.65
2023-01-19T04:53:38.812Z,82.93
2023-01-19T04:56:09.184Z,82.79
2023-01-19T04:58:42.407Z,82.94
2023-01-19T05:01:13.014Z,83.11
2023-01-19T05:03:43.066Z,82.94
2023-01-19T05:06:12.897Z,83.51
2023-01-19T05:08:45.543Z,83.60
2023-01-19T05:11:18.643Z,83.80
2023-01-19T05:13:51.607Z,83.71
2023-01-19T05:16:21.528Z,83.67
2023-01-19T05:18:52.131Z,83.86
2023-01-19T05:21:22.270Z,83.68
2023-01-19T05:23:52.476Z,83.81
2023-01-19T05:26:25.779Z,83.88
2023-01-19T05:28:58.274Z,83.82
2023-01-19T05:31:29.595Z,83.86
2023-01-19T05:34:01.403Z,84.19
2023-01-19T05:36:32.036Z,84.21
2023-01-19T05:39:03.721Z,84.08
2023-01-19T05:41:33.691Z,84.07
2023-01-19T05:44:07.183Z,84.12
2023-01-19T05:46:37.313Z,84.08
2023-01-19T05:49:07.759Z,84.01
2023-01-19T05:51:38.570Z,84.19
2023-01-19T05:54:10.429Z,84.35
2023-01-19T05:56:40.294Z,84.52
2023-01-19T05:59:12.978Z,84.34
2023-01-19T06:01:42.999Z,84.12
2023-01-19T06:04:12.908Z,84.07
2023-01-19T06:06:42.803Z,84.06
2023-01-19T06:09:12.902Z,83.91
2023-01-19T06:11:42.805Z,83.92
2023-01-19T06:14:17.874Z,83.64
2023-01-19T06:16:48.470Z,83.64
2023-01-19T06:19:18.938Z,83.81
2023-01-19T06:21:52.559Z,83.63
2023-01-19T06:24:23.199Z,83.67
2023-01-19T06:26:53.068Z,83.27
2023-01-19T06:29:27.426Z,83.13
2023-01-19T06:32:00.646Z,82.94
2023-01-19T06:34:30.948Z,82.99
2023-01-19T06:37:04.064Z,83.30
2023-01-19T06:39:35.552Z,82.87
2023-01-19T06:42:05.489Z,83.14
2023-01-19T06:44:38.261Z,83.00
2023-01-19T06:47:15.251Z,83.03
2023-01-19T06:49:46.847Z,82.80
2023-01-19T06:52:20.132Z,82.89
2023-01-19T06:54:51.098Z,82.96
2023-01-19T06:57:21.192Z,82.71
2023-01-19T06:59:53.909Z,82.27
2023-01-19T07:02:26.654Z,82.15
2023-01-19T07:04:58.052Z,82.34
2023-01-19T07:07:31.158Z,82.09
2023-01-19T07:10:02.615Z,82.08
2023-01-19T07:12:34.023Z,82.20
2023-01-19T07:15:07.726Z,81.96
2023-01-19T07:17:37.927Z,82.40
2023-01-19T07:20:09.429Z,82.25
2023-01-19T07:22:39.436Z,82.55
2023-01-19T07:25:11.329Z,82.54
2023-01-19T07:27:41.626Z,81.95
2023-01-19T07:30:18.585Z,81.13
2023-01-19T07:32:50.586Z,80.57
2023-01-19T07:35:25.494Z,79.72
2023-01-19T07:37:56.305Z,79.44
2023-01-19T07:40:26.787Z,78.68
2023-01-19T07:42:56.957Z,78.64
2023-01-19T07:45:29.997Z,78.78
2023-01-19T07:47:59.918Z,78.26
2023-01-19T07:50:32.011Z,77.82
2023-01-19T07:53:11.787Z,77.21
2023-01-19T07:55:41.914Z,77.02
2023-01-19T07:58:14.925Z,76.76
2023-01-19T08:00:49.569Z,76.40
2023-01-19T08:03:20.375Z,75.62
2023-01-19T08:05:58.166Z,75.37
2023-01-19T08:08:31.296Z,75.00
2023-01-19T08:11:03.883Z,75.09
2023-01-19T08:13:38.975Z,73.97
2023-01-19T08:16:12.778Z,73.49
2023-01-19T08:18:44.953Z,73.58
2023-01-19T08:21:14.862Z,73.03
2023-01-19T08:23:45.901Z,73.12
2023-01-19T08:26:25.319Z,73.74
2023-01-19T08:28:55.346Z,73.01
2023-01-19T08:31:29.801Z,72.85
2023-01-19T08:34:00.177Z,71.99
2023-01-19T08:36:32.310Z,70.75
2023-01-19T08:39:03.541Z,70.00
2023-01-19T08:41:36.606Z,69.42
2023-01-19T08:44:06.927Z,68.72
2023-01-19T08:46:39.539Z,67.46
2023-01-19T08:49:10.761Z,65.80
2023-01-19T08:51:40.920Z,65.18
2023-01-19T08:54:11.052Z,64.72
2023-01-19T08:56:41.047Z,63.94
2023-01-19T08:59:12.992Z,63.67
2023-01-19T09:01:46.705Z,63.78
2023-01-19T09:04:16.744Z,64.33
2023-01-19T09:06:46.715Z,63.84
2023-01-19T09:09:17.107Z,63.63
2023-01-19T09:11:46.965Z,64.02
2023-01-19T09:14:17.328Z,63.80
2023-01-19T09:16:49.979Z,63.84
2023-01-19T09:19:20.007Z,63.06
2023-01-19T09:21:50.890Z,63.68
2023-01-19T09:24:20.740Z,63.16
2023-01-19T09:26:50.641Z,62.86
2023-01-19T09:29:20.919Z,62.23
2023-01-19T09:31:53.383Z,61.62
2023-01-19T09:34:25.567Z,60.97
2023-01-19T09:36:55.540Z,59.50
2023-01-19T09:39:26.511Z,59.64
2023-01-19T09:42:09.488Z,59.86
2023-01-19T09:44:40.003Z,60.66
2023-01-19T09:47:23.574Z,59.91
2023-01-19T09:50:01.535Z,59.43
2023-01-19T09:52:35.503Z,59.38
2023-01-19T09:55:05.732Z,58.72
2023-01-19T09:57:37.636Z,58.67
2023-01-19T10:00:17.159Z,58.85
2023-01-19T10:02:56.405Z,57.86
2023-01-19T10:05:37.569Z,56.91
2023-01-19T10:08:24.010Z,56.29
2023-01-19T10:10:57.094Z,53.41
2023-01-19T10:13:42.264Z,52.93
2023-01-19T10:16:37.211Z,51.54
2023-01-19T10:19:26.173Z,50.41
2023-01-19T10:22:01.095Z,50.44
2023-01-19T10:24:40.339Z,49.18
2023-01-19T10:27:19.037Z,49.70
2023-01-19T10:29:50.051Z,48.52
2023-01-19T10:32:25.754Z,48.97
2023-01-19T10:34:59.624Z,50.13
2023-01-19T10:37:34.770Z,49.50
2023-01-19T10:40:23.232Z,49.92
2023-01-19T10:42:53.304Z,49.65
2023-01-19T10:45:27.636Z,49.40
2023-01-19T10:48:02.744Z,49.72
2023-01-19T10:50:40.107Z,50.77
2023-01-19T10:53:25.808Z,51.42
2023-01-19T10:56:18.200Z,51.32
2023-01-19T10:58:48.358Z,51.37
2023-01-19T11:01:21.817Z,52.55
2023-01-19T11:03:54.130Z,52.52
2023-01-19T11:06:32.672Z,52.62
2023-01-19T11:09:20.538Z,52.46
2023-01-19T11:11:53.324Z,52.54
2023-01-19T11:14:26.519Z,52.66
2023-01-19T11:16:59.599Z,52.82
2023-01-19T11:19:31.627Z,53.64
2023-01-19T11:22:22.430Z,53.14
2023-01-19T11:24:53.269Z,52.85
2023-01-19T11:27:24.583Z,53.05
2023-01-19T11:30:09.875Z,53.50
2023-01-19T11:32:39.864Z,52.84
2023-01-19T11:35:42.650Z,53.87
2023-01-19T11:38:27.404Z,53.96
2023-01-19T11:40:59.786Z,53.82
2023-01-19T11:43:48.246Z,53.48
2023-01-19T11:46:20.739Z,53.46
2023-01-19T11:49:02.106Z,53.46
2023-01-19T11:51:40.242Z,53.26
2023-01-19T11:54:24.353Z,53.93
2023-01-19T11:56:55.996Z,53.55
2023-01-19T11:59:26.928Z,53.36
2023-01-19T12:02:01.625Z,53.72
2023-01-19T12:04:37.247Z,54.11
2023-01-19T12:07:12.757Z,53.38
2023-01-19T12:09:51.000Z,54.82
2023-01-19T12:12:31.647Z,53.40
2023-01-19T12:15:09.809Z,54.11
2023-01-19T12:17:47.372Z,54.01
2023-01-19T12:20:29.630Z,53.48
2023-01-19T12:23:14.633Z,54.44
2023-01-19T12:26:01.610Z,54.57
2023-01-19T12:28:35.586Z,54.98
2023-01-19T12:31:08.397Z,55.49
2023-01-19T12:33:41.527Z,54.46
2023-01-19T12:36:40.229Z,53.94
2023-01-19T12:39:23.795Z,54.46
2023-01-19T12:42:11.098Z,54.27
2023-01-19T12:44:42.124Z,54.42
2023-01-19T12:47:24.573Z,53.86
2023-01-19T12:49:59.614Z,54.41
2023-01-19T12:52:34.581Z,52.61
2023-01-19T12:55:26.972Z,52.06
2023-01-19T12:58:04.811Z,52.89
2023-01-19T13:00:38.605Z,52.36
2023-01-19T13:03:49.044Z,53.03
2023-01-19T13:06:19.132Z,53.42
2023-01-19T13:09:03.633Z,53.80
2023-01-19T13:11:34.758Z,53.81
2023-01-19T13:14:36.813Z,54.08
2023-01-19T13:17:29.698Z,52.86
2023-01-19T13:20:35.046Z,53.03
2023-01-19T13:23:24.285Z,52.05
2023-01-19T13:26:01.531Z,52.28
2023-01-19T13:28:38.807Z,52.20
2023-01-19T13:31:10.224Z,52.40
2023-01-19T13:33:51.032Z,52.43
2023-01-19T13:36:30.374Z,53.56
2023-01-19T13:39:03.150Z,52.53
2023-01-19T13:41:38.389Z,52.94
2023-01-19T13:44:17.005Z,52.66
2023-01-19T13:46:48.729Z,53.07
2023-01-19T13:49:26.283Z,52.88
2023-01-19T13:52:18.442Z,53.03
2023-01-19T13:54:53.158Z,53.48
2023-01-19T13:57:28.782Z,53.31
2023-01-19T14:00:12.073Z,53.69
2023-01-19T14:02:43.134Z,54.17
2023-01-19T14:05:23.114Z,54.38
2023-01-19T14:08:03.429Z,54.92
2023-01-19T14:10:37.512Z,55.11
2023-01-19T14:13:18.939Z,55.07
2023-01-19T14:15:51.882Z,55.53
2023-01-19T14:18:30.384Z,55.18
2023-01-19T14:21:07.883Z,55.66
2023-01-19T14:23:44.303Z,55.56
2023-01-19T14:26:46.360Z,55.87
2023-01-19T14:29:26.263Z,55.72
2023-01-19T14:32:09.836Z,56.38
2023-01-19T14:34:41.591Z,56.20
2023-01-19T14:37:29.865Z,57.02
2023-01-19T14:40:04.821Z,57.84
2023-01-19T14:42:40.277Z,56.22
2023-01-19T14:45:20.895Z,56.32
2023-01-19T14:47:59.675Z,56.81
2023-01-19T14:50:33.252Z,57.18
2023-01-19T14:53:09.518Z,55.58
2023-01-19T14:55:49.852Z,56.22
2023-01-19T14:58:22.249Z,55.66
2023-01-19T15:00:55.743Z,55.99
2023-01-19T15:03:42.854Z,55.43
2023-01-19T15:06:19.504Z,55.90
2023-01-19T15:09:10.018Z,56.08
2023-01-19T15:11:40.043Z,56.48
2023-01-19T15:14:14.633Z,57.15
2023-01-19T15:16:46.630Z,57.74
2023-01-19T15:19:18.799Z,57.70
2023-01-19T15:21:48.708Z,57.49
2023-01-19T15:24:21.126Z,57.78
2023-01-19T15:26:52.272Z,58.16
2023-01-19T15:29:33.106Z,58.03
2023-01-19T15:32:04.057Z,58.23
2023-01-19T15:34:34.408Z,58.03
2023-01-19T15:37:06.030Z,58.26
2023-01-19T15:39:39.831Z,58.38
2023-01-19T15:42:17.513Z,58.43
2023-01-19T15:44:47.322Z,58.90
2023-01-19T15:47:17.146Z,58.72
2023-01-19T15:49:47.948Z,58.94
2023-01-19T15:52:19.029Z,59.19
2023-01-19T15:54:51.592Z,59.11
2023-01-19T15:57:24.422Z,59.33
2023-01-19T15:59:54.512Z,59.38
2023-01-19T16:02:26.911Z,59.28
2023-01-19T16:04:56.886Z,59.32
2023-01-19T16:07:27.791Z,59.75
2023-01-19T16:10:04.070Z,60.23
2023-01-19T16:12:34.295Z,60.87
2023-01-19T16:15:04.108Z,60.19
2023-01-19T16:17:36.676Z,59.51
2023-01-19T16:20:06.816Z,59.83
2023-01-19T16:22:37.761Z,59.24
2023-01-19T16:25:10.815Z,59.23
2023-01-19T16:27:40.866Z,60.44
2023-01-19T16:30:16.423Z,60.18
2023-01-19T16:32:47.646Z,59.93
2023-01-19T16:35:17.882Z,59.89
2023-01-19T16:37:53.495Z,60.29
2023-01-19T16:40:26.011Z,60.11
2023-01-19T16:42:58.080Z,60.56
2023-01-19T16:45:27.942Z,60.96
2023-01-19T16:47:58.668Z,61.74
2023-01-19T16:50:29.613Z,61.68
2023-01-19T16:53:00.297Z,61.84
2023-01-19T16:55:33.413Z,62.19
2023-01-19T16:58:03.325Z,61.94
2023-01-19T17:00:34.140Z,62.20
2023-01-19T17:03:04.053Z,62.58
2023-01-19T17:05:34.092Z,61.85
2023-01-19T17:08:04.085Z,61.41
2023-01-19T17:10:40.127Z,62.39
2023-01-19T17:13:10.034Z,62.21
2023-01-19T17:15:42.001Z,62.37
2023-01-19T17:18:15.882Z,62.25
2023-01-19T17:20:47.626Z,62.12
2023-01-19T17:23:18.194Z,61.59
2023-01-19T17:25:57.816Z,61.95
2023-01-19T17:28:30.351Z,62.35
2023-01-19T17:31:06.624Z,61.59
2023-01-19T17:33:39.797Z,61.59
2023-01-19T17:36:13.989Z,61.05
2023-01-19T17:38:49.316Z,61.23
2023-01-19T17:41:23.694Z,61.62
2023-01-19T17:43:54.624Z,61.84
2023-01-19T17:46:27.064Z,61.82
2023-01-19T17:49:00.368Z,61.99
2023-01-19T17:51:33.714Z,61.52
2023-01-19T17:54:04.223Z,61.56
2023-01-19T17:56:41.394Z,61.91
2023-01-19T17:59:11.393Z,61.89
2023-01-19T18:01:44.541Z,61.84
2023-01-19T18:04:14.896Z,61.81
2023-01-19T18:06:47.255Z,62.20
2023-01-19T18:09:17.114Z,63.15
2023-01-19T18:11:49.566Z,60.81
2023-01-19T18:14:19.497Z,61.36
2023-01-19T18:16:51.514Z,61.75
2023-01-19T18:19:22.587Z,61.29
2023-01-19T18:21:54.708Z,61.57
2023-01-19T18:24:25.933Z,61.82
2023-01-19T18:26:58.802Z,61.09
2023-01-19T18:29:28.652Z,61.18
2023-01-19T18:31:59.962Z,62.24
2023-01-19T18:34:30.258Z,62.23
2023-01-19T18:37:01.094Z,62.20
2023-01-19T18:39:31.253Z,62.36
2023-01-19T18:42:03.991Z,62.64
2023-01-19T18:44:36.263Z,62.24
2023-01-19T18:47:06.502Z,62.00
2023-01-19T18:49:36.333Z,62.21
2023-01-19T18:52:06.656Z,62.60
2023-01-19T18:54:37.731Z,62.02
2023-01-19T18:57:11.608Z,62.47
2023-01-19T18:59:42.638Z,61.83
2023-01-19T19:02:15.010Z,61.83
2023-01-19T19:04:45.326Z,61.81
2023-01-19T19:07:17.491Z,62.46
2023-01-19T19:09:47.673Z,62.35
2023-01-19T19:12:20.228Z,62.85
2023-01-19T19:14:51.732Z,62.81
2023-01-19T19:17:21.703Z,62.95
2023-01-19T19:19:51.668Z,63.13
2023-01-19T19:22:21.593Z,63.56
2023-01-19T19:24:51.798Z,63.22
2023-01-19T19:27:24.274Z,63.22
2023-01-19T19:29:54.235Z,63.50
2023-01-19T19:32:27.246Z,63.43
2023-01-19T19:34:59.076Z,63.76
2023-01-19T19:37:30.108Z,64.21
2023-01-19T19:40:00.200Z,64.27
2023-01-19T19:42:32.868Z,65.89
2023-01-19T19:45:04.012Z,64.25
2023-01-19T19:47:34.227Z,63.63
2023-01-19T19:50:04.717Z,63.18
2023-01-19T19:52:34.750Z,63.06
2023-01-19T19:55:04.607Z,62.84
2023-01-19T19:57:37.088Z,62.97
2023-01-19T20:00:08.760Z,63.03
2023-01-19T20:02:41.511Z,62.66
2023-01-19T20:05:12.029Z,62.49
2023-01-19T20:07:47.088Z,62.40
2023-01-19T20:10:17.181Z,62.40
2023-01-19T20:12:50.148Z,62.03
2023-01-19T20:15:20.693Z,61.88
2023-01-19T20:17:50.544Z,62.18
2023-01-19T20:20:20.924Z,62.45
2023-01-19T20:22:51.171Z,62.71
2023-01-19T20:25:21.295Z,62.79
2023-01-19T20:27:53.713Z,62.43
2023-01-19T20:30:26.819Z,62.61
2023-01-19T20:32:56.732Z,62.31
2023-01-19T20:35:26.827Z,63.78
2023-01-19T20:37:56.613Z,65.27
2023-01-19T20:40:26.505Z,65.17
2023-01-19T20:42:58.913Z,65.77
2023-01-19T20:45:28.787Z,66.04
2023-01-19T20:47:58.691Z,66.63
2023-01-19T20:50:28.509Z,65.67
2023-01-19T20:52:58.443Z,65.99
2023-01-19T20:55:28.543Z,65.74
2023-01-19T20:58:01.549Z,65.05
2023-01-19T21:00:31.648Z,65.25
2023-01-19T21:03:01.622Z,65.10
2023-01-19T21:05:31.569Z,65.34
2023-01-19T21:08:01.568Z,65.65
2023-01-19T21:10:32.140Z,65.69
2023-01-19T21:13:04.573Z,65.85
2023-01-19T21:15:34.571Z,66.16
2023-01-19T21:18:04.410Z,66.34
2023-01-19T21:20:35.836Z,66.73
2023-01-19T21:23:05.723Z,67.08
2023-01-19T21:25:37.247Z,67.02
2023-01-19T21:28:09.802Z,67.07
2023-01-19T21:30:39.639Z,67.41
2023-01-19T21:33:10.990Z,67.58
2023-01-19T21:35:40.977Z,67.64
2023-01-19T21:38:10.851Z,67.23
2023-01-19T21:40:40.694Z,67.60
2023-01-19T21:43:13.619Z,67.22
2023-01-19T21:45:44.259Z,67.28
2023-01-19T21:48:14.166Z,67.47
2023-01-19T21:50:44.047Z,67.83
2023-01-19T21:53:14.737Z,67.31
2023-01-19T21:55:47.719Z,67.63
2023-01-19T21:58:20.088Z,68.46
2023-01-19T22:00:50.033Z,68.06
2023-01-19T22:03:20.127Z,68.23
2023-01-19T22:05:50.004Z,69.48
2023-01-19T22:08:19.877Z,70.00
2023-01-19T22:10:49.728Z,69.80
2023-01-19T22:13:22.260Z,69.75
2023-01-19T22:15:52.069Z,69.18
2023-01-19T22:18:24.234Z,69.34
2023-01-19T22:20:54.098Z,69.11
2023-01-19T22:23:24.043Z,69.08
2023-01-19T22:25:54.056Z,68.51
2023-01-19T22:28:26.551Z,68.38
2023-01-19T22:30:56.469Z,67.96
2023-01-19T22:33:28.048Z,67.78
2023-01-19T22:35:57.929Z,68.02
2023-01-19T22:38:27.810Z,67.16
2023-01-19T22:40:57.672Z,67.15
2023-01-19T22:43:30.125Z,67.69
2023-01-19T22:46:00.187Z,67.59
2023-01-19T22:48:30.065Z,67.90
2023-01-19T22:51:01.109Z,68.73
2023-01-19T22:53:33.165Z,68.73
2023-01-19T22:56:02.977Z,70.08
2023-01-19T22:58:35.433Z,69.99
2023-01-19T23:04:16.799Z,68.92
2023-01-19T23:06:49.297Z,69.17
2023-01-19T23:09:20.476Z,69.35
2023-01-19T23:11:54.198Z,69.46
2023-01-19T23:14:26.642Z,69.56
2023-01-19T23:16:56.507Z,70.16
2023-01-19T23:19:28.736Z,70.51
2023-01-19T23:22:00.292Z,71.56
2023-01-19T23:24:30.583Z,71.42
2023-01-19T23:27:02.349Z,70.85
2023-01-19T23:29:34.859Z,69.83
2023-01-19T23:32:04.996Z,69.84
2023-01-19T23:34:34.874Z,69.97
2023-01-19T23:37:06.577Z,69.79
2023-01-19T23:39:36.382Z,69.57
2023-01-19T23:42:08.205Z,70.21
2023-01-19T23:44:40.657Z,71.67
2023-01-19T23:47:10.476Z,70.91
2023-01-19T23:49:40.290Z,70.60
2023-01-19T23:52:10.871Z,70.70
2023-01-19T23:54:41.951Z,70.47
2023-01-19T23:57:12.159Z,70.42
2023-01-19T23:59:44.605Z,70.49
